sensor_id;sensor_type;location;lat;lon;timestamp;pressure;altitude;pressure_sealevel;temperature;humidity
30714;BME280;17465;47.934;33.430;2022-09-09T00:02:19;100482.00;;;15.62;100.00
30714;BME280;17465;47.934;33.430;2022-09-09T00:05:04;100477.02;;;15.73;100.00
30714;BME280;17465;47.934;33.430;2022-09-09T00:07:47;100481.42;;;15.68;100.00
30714;BME280;17465;47.934;33.430;2022-09-09T00:10:34;100479.20;;;15.62;100.00
30714;BME280;17465;47.934;33.430;2022-09-09T00:13:16;100479.20;;;15.62;100.00
30714;BME280;17465;47.934;33.430;2022-09-09T00:16:19;100480.25;;;15.57;100.00
30714;BME280;17465;47.934;33.430;2022-09-09T00:24:46;100483.65;;;15.30;100.00
30714;BME280;17465;47.934;33.430;2022-09-09T00:27:23;100488.70;;;15.22;100.00
30714;BME280;17465;47.934;33.430;2022-09-09T00:30:18;100488.22;;;15.14;100.00
30714;BME280;17465;47.934;33.430;2022-09-09T00:32:53;100482.79;;;15.03;100.00
30714;BME280;17465;47.934;33.430;2022-09-09T00:35:24;100482.79;;;15.03;100.00
30714;BME280;17465;47.934;33.430;2022-09-09T00:40:49;100469.80;;;15.13;100.00
30714;BME280;17465;47.934;33.430;2022-09-09T00:51:47;100477.09;;;14.65;100.00
30714;BME280;17465;47.934;33.430;2022-09-09T00:57:25;100470.77;;;14.56;100.00
30714;BME280;17465;47.934;33.430;2022-09-09T01:00:24;100475.27;;;14.49;100.00
30714;BME280;17465;47.934;33.430;2022-09-09T01:11:16;100476.26;;;14.30;100.00
30714;BME280;17465;47.934;33.430;2022-09-09T01:13:46;100475.88;;;14.25;100.00
30714;BME280;17465;47.934;33.430;2022-09-09T01:16:18;100468.47;;;14.15;100.00
30714;BME280;17465;47.934;33.430;2022-09-09T01:18:51;100468.47;;;14.15;100.00
30714;BME280;17465;47.934;33.430;2022-09-09T01:21:32;100477.59;;;14.09;100.00
30714;BME280;17465;47.934;33.430;2022-09-09T01:24:25;100479.51;;;14.03;100.00
30714;BME280;17465;47.934;33.430;2022-09-09T01:26:56;100479.51;;;14.03;100.00
30714;BME280;17465;47.934;33.430;2022-09-09T01:29:27;100466.65;;;13.96;100.00
30714;BME280;17465;47.934;33.430;2022-09-09T01:32:01;100465.88;;;14.01;100.00
30714;BME280;17465;47.934;33.430;2022-09-09T01:37:25;100461.77;;;13.84;100.00
30714;BME280;17465;47.934;33.430;2022-09-09T01:39:56;100469.80;;;13.86;100.00
30714;BME280;17465;47.934;33.430;2022-09-09T01:42:26;100469.80;;;13.86;100.00
30714;BME280;17465;47.934;33.430;2022-09-09T01:44:57;100471.09;;;13.74;100.00
30714;BME280;17465;47.934;33.430;2022-09-09T01:47:27;100467.56;;;13.71;100.00
30714;BME280;17465;47.934;33.430;2022-09-09T01:49:58;100471.89;;;13.74;100.00
30714;BME280;17465;47.934;33.430;2022-09-09T01:52:30;100476.18;;;13.72;100.00
30714;BME280;17465;47.934;33.430;2022-09-09T01:55:02;100482.42;;;13.69;100.00
30714;BME280;17465;47.934;33.430;2022-09-09T02:00:24;100485.14;;;13.72;100.00
30714;BME280;17465;47.934;33.430;2022-09-09T02:02:59;100485.14;;;13.72;100.00
30714;BME280;17465;47.934;33.430;2022-09-09T02:05:36;100485.48;;;13.62;100.00
30714;BME280;17465;47.934;33.430;2022-09-09T02:08:14;100485.48;;;13.62;100.00
30714;BME280;17465;47.934;33.430;2022-09-09T02:13:22;100481.47;;;13.57;100.00
30714;BME280;17465;47.934;33.430;2022-09-09T02:15:59;100480.73;;;13.54;100.00
30714;BME280;17465;47.934;33.430;2022-09-09T02:18:40;100490.52;;;13.45;100.00
30714;BME280;17465;47.934;33.430;2022-09-09T02:21:31;100498.58;;;13.47;100.00
30714;BME280;17465;47.934;33.430;2022-09-09T02:24:06;100497.00;;;13.43;100.00
30714;BME280;17465;47.934;33.430;2022-09-09T02:26:40;100501.14;;;13.37;100.00
30714;BME280;17465;47.934;33.430;2022-09-09T02:29:14;100498.84;;;13.39;100.00
30714;BME280;17465;47.934;33.430;2022-09-09T02:31:46;100498.41;;;13.35;100.00
30714;BME280;17465;47.934;33.430;2022-09-09T02:34:20;100503.44;;;13.35;100.00
30714;BME280;17465;47.934;33.430;2022-09-09T02:36:53;100502.53;;;13.37;100.00
30714;BME280;17465;47.934;33.430;2022-09-09T02:39:25;100504.87;;;13.41;100.00
30714;BME280;17465;47.934;33.430;2022-09-09T02:41:56;100500.95;;;13.34;100.00
30714;BME280;17465;47.934;33.430;2022-09-09T02:44:26;100507.02;;;13.36;100.00
30714;BME280;17465;47.934;33.430;2022-09-09T02:47:16;100507.02;;;13.36;100.00
30714;BME280;17465;47.934;33.430;2022-09-09T02:49:50;100501.95;;;13.29;100.00
30714;BME280;17465;47.934;33.430;2022-09-09T02:52:20;100500.56;;;13.29;100.00
30714;BME280;17465;47.934;33.430;2022-09-09T02:54:54;100500.56;;;13.29;100.00
30714;BME280;17465;47.934;33.430;2022-09-09T02:57:26;100499.67;;;13.23;100.00
30714;BME280;17465;47.934;33.430;2022-09-09T03:00:01;100504.27;;;13.19;100.00
30714;BME280;17465;47.934;33.430;2022-09-09T03:02:32;100499.09;;;13.23;100.00
30714;BME280;17465;47.934;33.430;2022-09-09T03:05:02;100510.98;;;13.18;100.00
30714;BME280;17465;47.934;33.430;2022-09-09T03:07:33;100510.98;;;13.18;100.00
30714;BME280;17465;47.934;33.430;2022-09-09T03:10:03;100516.81;;;13.19;100.00
30714;BME280;17465;47.934;33.430;2022-09-09T03:12:34;100524.12;;;13.17;100.00
30714;BME280;17465;47.934;33.430;2022-09-09T03:15:06;100524.12;;;13.17;100.00
30714;BME280;17465;47.934;33.430;2022-09-09T03:17:43;100525.23;;;13.08;100.00
30714;BME280;17465;47.934;33.430;2022-09-09T03:20:13;100525.23;;;13.08;100.00
30714;BME280;17465;47.934;33.430;2022-09-09T03:22:43;100521.40;;;13.06;100.00
30714;BME280;17465;47.934;33.430;2022-09-09T03:25:13;100519.60;;;13.10;100.00
30714;BME280;17465;47.934;33.430;2022-09-09T03:27:44;100519.86;;;13.03;100.00
30714;BME280;17465;47.934;33.430;2022-09-09T03:30:15;100522.45;;;13.08;100.00
30714;BME280;17465;47.934;33.430;2022-09-09T03:32:45;100522.45;;;13.08;100.00
30714;BME280;17465;47.934;33.430;2022-09-09T03:35:18;100525.09;;;13.04;100.00
30714;BME280;17465;47.934;33.430;2022-09-09T03:37:48;100509.77;;;13.04;100.00
30714;BME280;17465;47.934;33.430;2022-09-09T03:40:18;100519.02;;;13.02;100.00
30714;BME280;17465;47.934;33.430;2022-09-09T03:42:49;100518.61;;;13.06;100.00
30714;BME280;17465;47.934;33.430;2022-09-09T03:45:20;100518.61;;;13.06;100.00
30714;BME280;17465;47.934;33.430;2022-09-09T03:47:50;100527.22;;;13.07;100.00
30714;BME280;17465;47.934;33.430;2022-09-09T03:50:20;100530.75;;;13.10;100.00
30714;BME280;17465;47.934;33.430;2022-09-09T03:52:51;100542.14;;;13.11;100.00
30714;BME280;17465;47.934;33.430;2022-09-09T03:55:21;100535.33;;;13.15;100.00
30714;BME280;17465;47.934;33.430;2022-09-09T03:57:52;100531.80;;;13.12;100.00
30714;BME280;17465;47.934;33.430;2022-09-09T04:00:22;100544.02;;;13.22;100.00
30714;BME280;17465;47.934;33.430;2022-09-09T04:02:53;100541.89;;;13.19;100.00
30714;BME280;17465;47.934;33.430;2022-09-09T04:05:24;100536.23;;;13.13;100.00
30714;BME280;17465;47.934;33.430;2022-09-09T04:07:54;100538.52;;;13.19;100.00
30714;BME280;17465;47.934;33.430;2022-09-09T04:10:24;100538.76;;;13.20;100.00
30714;BME280;17465;47.934;33.430;2022-09-09T04:12:59;100538.76;;;13.20;100.00
30714;BME280;17465;47.934;33.430;2022-09-09T04:15:30;100541.97;;;13.33;100.00
30714;BME280;17465;47.934;33.430;2022-09-09T04:18:01;100541.97;;;13.33;100.00
30714;BME280;17465;47.934;33.430;2022-09-09T04:20:32;100550.25;;;13.27;100.00
30714;BME280;17465;47.934;33.430;2022-09-09T04:23:03;100550.25;;;13.27;100.00
30714;BME280;17465;47.934;33.430;2022-09-09T04:25:35;100565.06;;;13.42;100.00
30714;BME280;17465;47.934;33.430;2022-09-09T04:28:05;100558.34;;;13.43;100.00
30714;BME280;17465;47.934;33.430;2022-09-09T04:30:36;100556.05;;;13.62;100.00
30714;BME280;17465;47.934;33.430;2022-09-09T04:33:07;100558.51;;;13.55;100.00
30714;BME280;17465;47.934;33.430;2022-09-09T04:35:38;100567.66;;;13.64;100.00
30714;BME280;17465;47.934;33.430;2022-09-09T04:38:09;100567.66;;;13.64;100.00
30714;BME280;17465;47.934;33.430;2022-09-09T04:40:41;100571.27;;;13.73;100.00
30714;BME280;17465;47.934;33.430;2022-09-09T04:43:11;100571.52;;;13.74;100.00
30714;BME280;17465;47.934;33.430;2022-09-09T04:45:44;100577.29;;;13.92;100.00
30714;BME280;17465;47.934;33.430;2022-09-09T04:48:15;100575.89;;;13.92;100.00
30714;BME280;17465;47.934;33.430;2022-09-09T04:51:00;100575.89;;;13.92;100.00
30714;BME280;17465;47.934;33.430;2022-09-09T04:53:33;100571.30;;;13.96;100.00
30714;BME280;17465;47.934;33.430;2022-09-09T04:56:09;100563.63;;;14.07;100.00
30714;BME280;17465;47.934;33.430;2022-09-09T04:58:41;100570.28;;;14.17;100.00
30714;BME280;17465;47.934;33.430;2022-09-09T05:01:16;100568.02;;;14.25;100.00
30714;BME280;17465;47.934;33.430;2022-09-09T05:03:47;100567.13;;;14.42;100.00
30714;BME280;17465;47.934;33.430;2022-09-09T05:06:19;100567.13;;;14.42;100.00
30714;BME280;17465;47.934;33.430;2022-09-09T05:08:51;100571.33;;;14.71;100.00
30714;BME280;17465;47.934;33.430;2022-09-09T05:11:27;100560.47;;;14.83;100.00
30714;BME280;17465;47.934;33.430;2022-09-09T05:13:58;100560.47;;;14.83;100.00
30714;BME280;17465;47.934;33.430;2022-09-09T05:19:19;100576.30;;;15.20;100.00
30714;BME280;17465;47.934;33.430;2022-09-09T05:21:50;100579.89;;;15.29;100.00
30714;BME280;17465;47.934;33.430;2022-09-09T05:24:20;100579.30;;;15.50;100.00
30714;BME280;17465;47.934;33.430;2022-09-09T05:26:51;100584.37;;;15.36;100.00
30714;BME280;17465;47.934;33.430;2022-09-09T05:29:21;100586.39;;;15.74;100.00
30714;BME280;17465;47.934;33.430;2022-09-09T05:31:51;100586.77;;;16.23;100.00
30714;BME280;17465;47.934;33.430;2022-09-09T05:34:21;100586.77;;;16.23;100.00
30714;BME280;17465;47.934;33.430;2022-09-09T05:36:52;100594.05;;;16.54;100.00
30714;BME280;17465;47.934;33.430;2022-09-09T05:39:24;100597.55;;;17.10;100.00
30714;BME280;17465;47.934;33.430;2022-09-09T05:41:55;100608.71;;;18.22;98.36
30714;BME280;17465;47.934;33.430;2022-09-09T05:44:25;100608.71;;;18.22;98.36
30714;BME280;17465;47.934;33.430;2022-09-09T05:46:59;100600.66;;;18.58;91.40
30714;BME280;17465;47.934;33.430;2022-09-09T05:49:30;100586.91;;;18.78;91.53
30714;BME280;17465;47.934;33.430;2022-09-09T05:52:01;100602.48;;;19.40;89.84
30714;BME280;17465;47.934;33.430;2022-09-09T05:54:32;100602.48;;;19.40;89.84
30714;BME280;17465;47.934;33.430;2022-09-09T05:57:03;100597.12;;;19.89;89.09
30714;BME280;17465;47.934;33.430;2022-09-09T05:59:33;100598.59;;;19.92;87.11
30714;BME280;17465;47.934;33.430;2022-09-09T06:02:04;100596.70;;;20.28;86.27
30714;BME280;17465;47.934;33.430;2022-09-09T06:04:36;100602.62;;;20.42;85.48
30714;BME280;17465;47.934;33.430;2022-09-09T06:07:09;100601.84;;;21.54;78.97
30714;BME280;17465;47.934;33.430;2022-09-09T06:09:40;100601.84;;;21.54;78.97
30714;BME280;17465;47.934;33.430;2022-09-09T06:12:11;100605.57;;;21.58;79.53
30714;BME280;17465;47.934;33.430;2022-09-09T06:14:43;100609.61;;;21.90;79.70
30714;BME280;17465;47.934;33.430;2022-09-09T06:17:17;100614.77;;;21.68;78.87
30714;BME280;17465;47.934;33.430;2022-09-09T06:19:48;100610.93;;;22.16;76.42
30714;BME280;17465;47.934;33.430;2022-09-09T06:22:19;100613.03;;;22.82;72.65
30714;BME280;17465;47.934;33.430;2022-09-09T06:24:49;100616.20;;;23.17;71.07
30714;BME280;17465;47.934;33.430;2022-09-09T06:27:19;100622.07;;;23.82;67.50
30714;BME280;17465;47.934;33.430;2022-09-09T06:29:50;100619.95;;;24.06;65.43
30714;BME280;17465;47.934;33.430;2022-09-09T06:32:20;100625.09;;;24.28;63.26
30714;BME280;17465;47.934;33.430;2022-09-09T06:34:53;100625.09;;;24.28;63.26
30714;BME280;17465;47.934;33.430;2022-09-09T06:37:23;100627.46;;;24.84;59.64
30714;BME280;17465;47.934;33.430;2022-09-09T06:39:54;100627.46;;;24.84;59.64
30714;BME280;17465;47.934;33.430;2022-09-09T06:42:24;100644.37;;;24.35;62.62
30714;BME280;17465;47.934;33.430;2022-09-09T06:44:57;100647.95;;;24.76;59.96
30714;BME280;17465;47.934;33.430;2022-09-09T06:47:29;100647.95;;;24.76;59.96
30714;BME280;17465;47.934;33.430;2022-09-09T06:49:59;100654.36;;;24.49;61.78
30714;BME280;17465;47.934;33.430;2022-09-09T06:52:30;100660.94;;;25.02;59.38
30714;BME280;17465;47.934;33.430;2022-09-09T06:55:00;100658.75;;;25.22;58.00
30714;BME280;17465;47.934;33.430;2022-09-09T06:57:37;100658.52;;;24.21;61.12
30714;BME280;17465;47.934;33.430;2022-09-09T07:00:08;100658.52;;;24.21;61.12
30714;BME280;17465;47.934;33.430;2022-09-09T07:02:39;100663.35;;;25.80;53.72
30714;BME280;17465;47.934;33.430;2022-09-09T07:05:10;100670.93;;;25.37;56.33
30714;BME280;17465;47.934;33.430;2022-09-09T07:07:40;100674.19;;;26.23;51.60
30714;BME280;17465;47.934;33.430;2022-09-09T07:10:11;100667.02;;;25.80;53.01
30714;BME280;17465;47.934;33.430;2022-09-09T07:12:43;100667.02;;;25.80;53.01
30714;BME280;17465;47.934;33.430;2022-09-09T07:15:13;100660.34;;;24.92;54.58
30714;BME280;17465;47.934;33.430;2022-09-09T07:17:44;100670.05;;;25.74;53.30
30714;BME280;17465;47.934;33.430;2022-09-09T07:20:14;100682.23;;;26.78;50.80
30714;BME280;17465;47.934;33.430;2022-09-09T07:22:44;100682.23;;;26.78;50.80
30714;BME280;17465;47.934;33.430;2022-09-09T07:25:15;100675.84;;;26.60;51.03
30714;BME280;17465;47.934;33.430;2022-09-09T07:27:47;100665.02;;;25.50;52.96
30714;BME280;17465;47.934;33.430;2022-09-09T07:30:17;100668.57;;;25.99;52.01
30714;BME280;17465;47.934;33.430;2022-09-09T07:32:51;100682.59;;;27.63;45.63
30714;BME280;17465;47.934;33.430;2022-09-09T07:35:22;100682.59;;;27.63;45.63
30714;BME280;17465;47.934;33.430;2022-09-09T07:37:52;100677.61;;;27.05;46.60
30714;BME280;17465;47.934;33.430;2022-09-09T07:40:26;100666.44;;;26.67;47.94
30714;BME280;17465;47.934;33.430;2022-09-09T07:42:57;100666.44;;;26.67;47.94
30714;BME280;17465;47.934;33.430;2022-09-09T07:45:28;100664.70;;;26.01;50.94
30714;BME280;17465;47.934;33.430;2022-09-09T07:47:58;100664.79;;;26.26;52.51
30714;BME280;17465;47.934;33.430;2022-09-09T07:50:29;100662.41;;;25.37;50.33
30714;BME280;17465;47.934;33.430;2022-09-09T07:53:00;100657.25;;;25.68;50.44
30714;BME280;17465;47.934;33.430;2022-09-09T07:55:33;100657.25;;;25.68;50.44
30714;BME280;17465;47.934;33.430;2022-09-09T07:58:03;100660.84;;;24.46;58.90
30714;BME280;17465;47.934;33.430;2022-09-09T08:00:34;100649.22;;;24.31;57.67
30714;BME280;17465;47.934;33.430;2022-09-09T08:03:07;100649.22;;;24.31;57.67
30714;BME280;17465;47.934;33.430;2022-09-09T08:05:38;100663.06;;;23.95;57.08
30714;BME280;17465;47.934;33.430;2022-09-09T08:08:09;100655.52;;;24.34;59.11
30714;BME280;17465;47.934;33.430;2022-09-09T08:10:39;100654.77;;;24.51;58.68
30714;BME280;17465;47.934;33.430;2022-09-09T08:13:10;100654.77;;;24.51;58.68
30714;BME280;17465;47.934;33.430;2022-09-09T08:15:43;100646.35;;;25.03;54.66
30714;BME280;17465;47.934;33.430;2022-09-09T08:18:13;100646.35;;;25.03;54.66
30714;BME280;17465;47.934;33.430;2022-09-09T08:20:44;100650.33;;;25.72;51.26
30714;BME280;17465;47.934;33.430;2022-09-09T08:23:14;100647.97;;;26.20;49.64
30714;BME280;17465;47.934;33.430;2022-09-09T08:25:45;100644.10;;;25.03;52.71
30714;BME280;17465;47.934;33.430;2022-09-09T08:28:15;100656.86;;;26.33;50.30
30714;BME280;17465;47.934;33.430;2022-09-09T08:30:45;100651.58;;;27.25;46.02
30714;BME280;17465;47.934;33.430;2022-09-09T08:33:16;100651.58;;;27.25;46.02
30714;BME280;17465;47.934;33.430;2022-09-09T08:35:52;100652.77;;;27.90;44.04
30714;BME280;17465;47.934;33.430;2022-09-09T08:38:22;100655.52;;;28.33;46.06
30714;BME280;17465;47.934;33.430;2022-09-09T08:40:56;100657.65;;;29.23;42.46
30714;BME280;17465;47.934;33.430;2022-09-09T08:43:28;100656.84;;;28.85;40.84
30714;BME280;17465;47.934;33.430;2022-09-09T08:46:14;100649.44;;;27.80;40.09
30714;BME280;17465;47.934;33.430;2022-09-09T08:48:46;100649.44;;;27.80;40.09
30714;BME280;17465;47.934;33.430;2022-09-09T08:51:15;100659.61;;;28.62;42.22
30714;BME280;17465;47.934;33.430;2022-09-09T08:53:48;100655.30;;;28.17;39.95
30714;BME280;17465;47.934;33.430;2022-09-09T08:56:24;100651.39;;;29.06;40.86
30714;BME280;17465;47.934;33.430;2022-09-09T08:58:56;100651.39;;;29.06;40.86
30714;BME280;17465;47.934;33.430;2022-09-09T09:01:51;100654.80;;;30.39;37.72
30714;BME280;17465;47.934;33.430;2022-09-09T09:10:57;100641.00;;;28.51;39.50
30714;BME280;17465;47.934;33.430;2022-09-09T09:13:46;100642.73;;;30.39;36.50
30714;BME280;17465;47.934;33.430;2022-09-09T09:19:11;100643.78;;;30.10;35.01
30714;BME280;17465;47.934;33.430;2022-09-09T09:22:30;100632.55;;;28.85;37.44
30714;BME280;17465;47.934;33.430;2022-09-09T09:25:15;100633.72;;;30.49;35.67
30714;BME280;17465;47.934;33.430;2022-09-09T09:27:58;100633.72;;;30.49;35.67
30714;BME280;17465;47.934;33.430;2022-09-09T09:30:44;100648.66;;;31.19;34.96
30714;BME280;17465;47.934;33.430;2022-09-09T09:33:26;100650.81;;;31.23;33.95
30714;BME280;17465;47.934;33.430;2022-09-09T09:35:56;100650.81;;;31.23;33.95
30714;BME280;17465;47.934;33.430;2022-09-09T09:38:27;100642.91;;;29.71;35.05
30714;BME280;17465;47.934;33.430;2022-09-09T09:41:00;100637.32;;;29.52;33.29
30714;BME280;17465;47.934;33.430;2022-09-09T09:43:35;100638.67;;;30.37;34.06
30714;BME280;17465;47.934;33.430;2022-09-09T09:46:19;100638.67;;;30.37;34.06
30714;BME280;17465;47.934;33.430;2022-09-09T09:49:03;100640.23;;;30.49;32.56
30714;BME280;17465;47.934;33.430;2022-09-09T09:51:35;100645.78;;;31.19;31.54
30714;BME280;17465;47.934;33.430;2022-09-09T09:54:27;100643.73;;;31.43;31.14
30714;BME280;17465;47.934;33.430;2022-09-09T09:57:16;100631.64;;;29.03;36.15
30714;BME280;17465;47.934;33.430;2022-09-09T09:59:48;100631.67;;;28.73;36.05
30714;BME280;17465;47.934;33.430;2022-09-09T10:02:25;100631.67;;;28.73;36.05
30714;BME280;17465;47.934;33.430;2022-09-09T10:05:08;100643.14;;;29.00;36.93
30714;BME280;17465;47.934;33.430;2022-09-09T10:07:43;100634.06;;;29.39;37.39
30714;BME280;17465;47.934;33.430;2022-09-09T10:10:26;100634.06;;;29.39;37.39
30714;BME280;17465;47.934;33.430;2022-09-09T10:13:20;100637.29;;;29.07;34.90
30714;BME280;17465;47.934;33.430;2022-09-09T10:28:17;100634.80;;;27.74;35.56
30714;BME280;17465;47.934;33.430;2022-09-09T10:30:52;100632.39;;;27.73;40.20
30714;BME280;17465;47.934;33.430;2022-09-09T10:36:21;100634.92;;;28.00;38.35
30714;BME280;17465;47.934;33.430;2022-09-09T10:39:06;100637.17;;;29.02;36.22
30714;BME280;17465;47.934;33.430;2022-09-09T10:41:42;100634.08;;;28.63;33.79
30714;BME280;17465;47.934;33.430;2022-09-09T10:44:24;100627.05;;;29.09;32.53
30714;BME280;17465;47.934;33.430;2022-09-09T10:50:01;100624.74;;;30.74;29.41
30714;BME280;17465;47.934;33.430;2022-09-09T10:55:26;100615.47;;;29.27;30.53
30714;BME280;17465;47.934;33.430;2022-09-09T10:57:59;100618.10;;;29.64;32.93
30714;BME280;17465;47.934;33.430;2022-09-09T11:00:50;100623.40;;;31.82;27.67
30714;BME280;17465;47.934;33.430;2022-09-09T11:03:24;100612.19;;;30.33;30.95
30714;BME280;17465;47.934;33.430;2022-09-09T11:05:58;100600.70;;;30.06;32.21
30714;BME280;17465;47.934;33.430;2022-09-09T11:08:27;100600.70;;;30.06;32.21
30714;BME280;17465;47.934;33.430;2022-09-09T11:11:08;100615.64;;;31.43;32.14
30714;BME280;17465;47.934;33.430;2022-09-09T11:16:41;100607.22;;;31.04;31.93
30714;BME280;17465;47.934;33.430;2022-09-09T11:27:49;100599.42;;;30.45;33.14
30714;BME280;17465;47.934;33.430;2022-09-09T11:31:00;100611.98;;;32.36;28.38
30714;BME280;17465;47.934;33.430;2022-09-09T11:38:51;100603.89;;;30.74;30.51
30714;BME280;17465;47.934;33.430;2022-09-09T11:41:19;100600.57;;;30.67;30.67
30714;BME280;17465;47.934;33.430;2022-09-09T11:46:41;100599.34;;;28.80;34.77
30714;BME280;17465;47.934;33.430;2022-09-09T11:49:39;100601.58;;;28.09;39.00
30714;BME280;17465;47.934;33.430;2022-09-09T11:52:10;100601.58;;;28.09;39.00
30714;BME280;17465;47.934;33.430;2022-09-09T11:54:44;100597.00;;;29.86;31.91
30714;BME280;17465;47.934;33.430;2022-09-09T11:57:17;100597.00;;;29.86;31.91
30714;BME280;17465;47.934;33.430;2022-09-09T11:59:50;100603.07;;;30.65;32.57
30714;BME280;17465;47.934;33.430;2022-09-09T12:02:21;100606.84;;;31.66;30.98
30714;BME280;17465;47.934;33.430;2022-09-09T12:05:11;100591.33;;;29.94;32.17
30714;BME280;17465;47.934;33.430;2022-09-09T12:07:51;100589.65;;;31.02;32.76
30714;BME280;17465;47.934;33.430;2022-09-09T12:10:35;100595.12;;;30.97;32.01
30714;BME280;17465;47.934;33.430;2022-09-09T12:13:16;100601.27;;;31.75;29.28
30714;BME280;17465;47.934;33.430;2022-09-09T12:15:57;100597.61;;;30.16;32.06
30714;BME280;17465;47.934;33.430;2022-09-09T12:18:37;100597.61;;;30.16;32.06
30714;BME280;17465;47.934;33.430;2022-09-09T12:21:29;100584.12;;;29.86;34.15
30714;BME280;17465;47.934;33.430;2022-09-09T12:23:55;100584.12;;;29.86;34.15
30714;BME280;17465;47.934;33.430;2022-09-09T12:26:34;100591.82;;;30.20;35.12
30714;BME280;17465;47.934;33.430;2022-09-09T12:32:08;100580.56;;;29.90;32.18
30714;BME280;17465;47.934;33.430;2022-09-09T12:37:37;100566.77;;;27.36;35.57
30714;BME280;17465;47.934;33.430;2022-09-09T12:43:23;100568.15;;;27.39;35.34
30714;BME280;17465;47.934;33.430;2022-09-09T12:46:07;100578.44;;;29.94;35.40
30714;BME280;17465;47.934;33.430;2022-09-09T12:48:30;100587.23;;;30.93;33.26
30714;BME280;17465;47.934;33.430;2022-09-09T12:51:01;100596.54;;;31.89;30.87
30714;BME280;17465;47.934;33.430;2022-09-09T12:53:35;100596.54;;;31.89;30.87
30714;BME280;17465;47.934;33.430;2022-09-09T12:56:09;100568.61;;;29.56;30.27
30714;BME280;17465;47.934;33.430;2022-09-09T12:58:44;100572.62;;;29.89;34.37
30714;BME280;17465;47.934;33.430;2022-09-09T13:01:31;100570.42;;;28.89;35.31
30714;BME280;17465;47.934;33.430;2022-09-09T13:04:02;100570.42;;;28.89;35.31
30714;BME280;17465;47.934;33.430;2022-09-09T13:06:33;100570.13;;;28.27;35.88
30714;BME280;17465;47.934;33.430;2022-09-09T13:09:07;100568.47;;;27.67;36.81
30714;BME280;17465;47.934;33.430;2022-09-09T13:11:41;100572.49;;;27.32;38.73
30714;BME280;17465;47.934;33.430;2022-09-09T13:17:23;100568.64;;;26.26;42.42
30714;BME280;17465;47.934;33.430;2022-09-09T13:19:57;100568.64;;;26.26;42.42
30714;BME280;17465;47.934;33.430;2022-09-09T13:22:30;100551.52;;;25.44;42.49
30714;BME280;17465;47.934;33.430;2022-09-09T13:28:01;100552.63;;;25.14;43.37
30714;BME280;17465;47.934;33.430;2022-09-09T13:30:36;100552.19;;;24.98;45.02
30714;BME280;17465;47.934;33.430;2022-09-09T13:36:02;100561.33;;;24.73;43.92
30714;BME280;17465;47.934;33.430;2022-09-09T13:41:35;100562.01;;;24.00;47.58
30714;BME280;17465;47.934;33.430;2022-09-09T13:43:56;100559.17;;;24.00;46.75
30714;BME280;17465;47.934;33.430;2022-09-09T13:46:35;100559.34;;;23.94;44.13
30714;BME280;17465;47.934;33.430;2022-09-09T13:52:02;100557.13;;;24.01;44.84
30714;BME280;17465;47.934;33.430;2022-09-09T13:54:24;100557.13;;;24.01;44.84
30714;BME280;17465;47.934;33.430;2022-09-09T13:56:54;100569.06;;;23.93;47.77
30714;BME280;17465;47.934;33.430;2022-09-09T13:59:26;100564.57;;;23.85;49.28
30714;BME280;17465;47.934;33.430;2022-09-09T14:01:58;100560.44;;;24.27;43.64
30714;BME280;17465;47.934;33.430;2022-09-09T14:04:29;100560.77;;;23.91;45.57
30714;BME280;17465;47.934;33.430;2022-09-09T14:06:59;100568.33;;;23.73;47.32
30714;BME280;17465;47.934;33.430;2022-09-09T14:09:30;100566.78;;;23.82;44.25
30714;BME280;17465;47.934;33.430;2022-09-09T14:12:00;100566.78;;;23.82;44.25
30714;BME280;17465;47.934;33.430;2022-09-09T14:14:30;100569.49;;;23.58;45.77
30714;BME280;17465;47.934;33.430;2022-09-09T14:17:01;100568.41;;;23.83;43.71
30714;BME280;17465;47.934;33.430;2022-09-09T14:19:33;100571.22;;;23.43;46.42
30714;BME280;17465;47.934;33.430;2022-09-09T14:22:07;100571.27;;;23.50;45.02
30714;BME280;17465;47.934;33.430;2022-09-09T14:24:37;100576.10;;;23.46;43.50
30714;BME280;17465;47.934;33.430;2022-09-09T14:27:08;100576.10;;;23.46;43.50
30714;BME280;17465;47.934;33.430;2022-09-09T14:29:38;100579.45;;;23.31;47.31
30714;BME280;17465;47.934;33.430;2022-09-09T14:32:09;100573.94;;;23.22;45.04
30714;BME280;17465;47.934;33.430;2022-09-09T14:34:41;100573.20;;;23.32;45.75
30714;BME280;17465;47.934;33.430;2022-09-09T14:37:12;100573.20;;;23.32;45.75
30714;BME280;17465;47.934;33.430;2022-09-09T14:39:43;100580.38;;;23.19;44.77
30714;BME280;17465;47.934;33.430;2022-09-09T14:42:15;100580.38;;;23.19;44.77
30714;BME280;17465;47.934;33.430;2022-09-09T14:44:45;100586.64;;;22.95;47.35
30714;BME280;17465;47.934;33.430;2022-09-09T14:47:15;100586.64;;;22.95;47.35
30714;BME280;17465;47.934;33.430;2022-09-09T14:49:46;100583.50;;;22.80;48.38
30714;BME280;17465;47.934;33.430;2022-09-09T14:52:16;100582.07;;;22.76;48.62
30714;BME280;17465;47.934;33.430;2022-09-09T14:54:48;100589.98;;;22.37;51.53
30714;BME280;17465;47.934;33.430;2022-09-09T14:57:19;100596.41;;;22.34;51.40
30714;BME280;17465;47.934;33.430;2022-09-09T14:59:54;100603.58;;;22.28;51.23
30714;BME280;17465;47.934;33.430;2022-09-09T15:02:29;100601.50;;;22.05;56.89
30714;BME280;17465;47.934;33.430;2022-09-09T15:05:09;100605.72;;;21.69;59.03